sensor_id;sensor_type;location;lat;lon;timestamp;P1;durP1;ratioP1;P2;durP2;ratioP2
1358;SDS011;673;48.098;14.422;2023-12-20T00:01:06;19.27;;;14.73;;
1358;SDS011;673;48.098;14.422;2023-12-20T00:03:35;18.63;;;13.70;;
1358;SDS011;673;48.098;14.422;2023-12-20T00:06:02;19.30;;;14.17;;
1358;SDS011;673;48.098;14.422;2023-12-20T00:08:29;15.00;;;12.33;;
1358;SDS011;673;48.098;14.422;2023-12-20T00:10:56;10.87;;;9.80;;
1358;SDS011;673;48.098;14.422;2023-12-20T00:13:23;9.80;;;8.10;;
1358;SDS011;673;48.098;14.422;2023-12-20T00:15:50;6.00;;;5.40;;
1358;SDS011;673;48.098;14.422;2023-12-20T00:18:17;7.03;;;5.27;;
1358;SDS011;673;48.098;14.422;2023-12-20T00:20:45;7.00;;;5.23;;
1358;SDS011;673;48.098;14.422;2023-12-20T00:23:12;7.77;;;5.57;;
1358;SDS011;673;48.098;14.422;2023-12-20T00:25:39;7.07;;;4.83;;
1358;SDS011;673;48.098;14.422;2023-12-20T00:28:06;6.70;;;6.10;;
1358;SDS011;673;48.098;14.422;2023-12-20T00:30:33;9.83;;;5.70;;
1358;SDS011;673;48.098;14.422;2023-12-20T00:33:01;6.10;;;5.30;;
1358;SDS011;673;48.098;14.422;2023-12-20T00:35:28;7.53;;;5.60;;
1358;SDS011;673;48.098;14.422;2023-12-20T00:37:57;7.73;;;6.50;;
1358;SDS011;673;48.098;14.422;2023-12-20T00:40:25;5.10;;;4.13;;
1358;SDS011;673;48.098;14.422;2023-12-20T00:42:52;5.50;;;4.07;;
1358;SDS011;673;48.098;14.422;2023-12-20T00:45:19;5.03;;;4.00;;
1358;SDS011;673;48.098;14.422;2023-12-20T00:47:46;5.83;;;3.57;;
1358;SDS011;673;48.098;14.422;2023-12-20T00:50:13;5.63;;;4.20;;
1358;SDS011;673;48.098;14.422;2023-12-20T00:52:40;4.10;;;3.57;;
1358;SDS011;673;48.098;14.422;2023-12-20T00:55:09;4.67;;;3.63;;
1358;SDS011;673;48.098;14.422;2023-12-20T00:57:36;4.33;;;3.30;;
1358;SDS011;673;48.098;14.422;2023-12-20T01:00:03;5.80;;;4.27;;
1358;SDS011;673;48.098;14.422;2023-12-20T01:02:30;3.67;;;3.10;;
1358;SDS011;673;48.098;14.422;2023-12-20T01:04:57;4.40;;;3.97;;
1358;SDS011;673;48.098;14.422;2023-12-20T01:07:24;6.63;;;4.43;;
1358;SDS011;673;48.098;14.422;2023-12-20T01:09:51;4.27;;;3.77;;
1358;SDS011;673;48.098;14.422;2023-12-20T01:12:20;4.27;;;3.20;;
1358;SDS011;673;48.098;14.422;2023-12-20T01:14:47;3.87;;;3.33;;
1358;SDS011;673;48.098;14.422;2023-12-20T01:17:14;2.63;;;2.30;;
1358;SDS011;673;48.098;14.422;2023-12-20T01:19:41;2.93;;;2.60;;
1358;SDS011;673;48.098;14.422;2023-12-20T01:22:08;2.70;;;2.50;;
1358;SDS011;673;48.098;14.422;2023-12-20T01:24:35;2.80;;;2.53;;
1358;SDS011;673;48.098;14.422;2023-12-20T01:27:02;4.47;;;1.90;;
1358;SDS011;673;48.098;14.422;2023-12-20T01:29:30;1.73;;;1.63;;
1358;SDS011;673;48.098;14.422;2023-12-20T01:31:57;2.27;;;2.07;;
1358;SDS011;673;48.098;14.422;2023-12-20T01:34:24;2.37;;;1.33;;
1358;SDS011;673;48.098;14.422;2023-12-20T01:36:51;2.03;;;1.90;;
1358;SDS011;673;48.098;14.422;2023-12-20T01:39:18;2.17;;;1.73;;
1358;SDS011;673;48.098;14.422;2023-12-20T01:41:45;1.40;;;1.17;;
1358;SDS011;673;48.098;14.422;2023-12-20T01:44:12;1.90;;;1.70;;
1358;SDS011;673;48.098;14.422;2023-12-20T01:46:40;2.33;;;2.03;;
1358;SDS011;673;48.098;14.422;2023-12-20T01:49:07;2.13;;;1.23;;
1358;SDS011;673;48.098;14.422;2023-12-20T01:51:34;0.93;;;0.80;;
1358;SDS011;673;48.098;14.422;2023-12-20T01:54:02;1.23;;;0.90;;
1358;SDS011;673;48.098;14.422;2023-12-20T01:56:30;0.93;;;0.87;;
1358;SDS011;673;48.098;14.422;2023-12-20T01:58:58;1.07;;;0.70;;
1358;SDS011;673;48.098;14.422;2023-12-20T02:01:26;1.47;;;1.13;;
1358;SDS011;673;48.098;14.422;2023-12-20T02:03:55;1.10;;;0.80;;
1358;SDS011;673;48.098;14.422;2023-12-20T02:06:23;1.40;;;0.93;;
1358;SDS011;673;48.098;14.422;2023-12-20T02:08:53;1.80;;;1.03;;
1358;SDS011;673;48.098;14.422;2023-12-20T02:11:20;0.90;;;0.80;;
1358;SDS011;673;48.098;14.422;2023-12-20T02:13:46;1.10;;;1.00;;
1358;SDS011;673;48.098;14.422;2023-12-20T02:16:13;1.10;;;0.83;;
1358;SDS011;673;48.098;14.422;2023-12-20T02:18:41;1.50;;;1.17;;
1358;SDS011;673;48.098;14.422;2023-12-20T02:21:10;1.13;;;0.90;;
1358;SDS011;673;48.098;14.422;2023-12-20T02:23:38;1.00;;;0.90;;
1358;SDS011;673;48.098;14.422;2023-12-20T02:26:05;1.20;;;0.93;;
1358;SDS011;673;48.098;14.422;2023-12-20T02:28:33;0.97;;;0.73;;
1358;SDS011;673;48.098;14.422;2023-12-20T02:31:00;6.60;;;4.17;;
1358;SDS011;673;48.098;14.422;2023-12-20T02:33:27;3.07;;;2.40;;
1358;SDS011;673;48.098;14.422;2023-12-20T02:35:54;2.57;;;2.40;;
1358;SDS011;673;48.098;14.422;2023-12-20T02:38:21;3.90;;;3.50;;
1358;SDS011;673;48.098;14.422;2023-12-20T02:40:50;5.20;;;4.70;;
1358;SDS011;673;48.098;14.422;2023-12-20T02:43:17;5.70;;;5.10;;
1358;SDS011;673;48.098;14.422;2023-12-20T02:45:43;8.57;;;6.07;;
1358;SDS011;673;48.098;14.422;2023-12-20T02:48:11;7.60;;;6.80;;
1358;SDS011;673;48.098;14.422;2023-12-20T02:50:37;6.97;;;6.30;;
1358;SDS011;673;48.098;14.422;2023-12-20T02:53:04;8.27;;;5.90;;
1358;SDS011;673;48.098;14.422;2023-12-20T02:55:31;6.50;;;5.97;;
1358;SDS011;673;48.098;14.422;2023-12-20T02:58:00;7.93;;;7.13;;
1358;SDS011;673;48.098;14.422;2023-12-20T03:00:27;8.87;;;7.50;;
1358;SDS011;673;48.098;14.422;2023-12-20T03:02:54;8.43;;;6.93;;
1358;SDS011;673;48.098;14.422;2023-12-20T03:05:21;8.33;;;7.40;;
1358;SDS011;673;48.098;14.422;2023-12-20T03:07:48;11.03;;;8.57;;
1358;SDS011;673;48.098;14.422;2023-12-20T03:10:15;12.20;;;9.20;;
1358;SDS011;673;48.098;14.422;2023-12-20T03:12:42;10.60;;;8.10;;
1358;SDS011;673;48.098;14.422;2023-12-20T03:15:10;11.37;;;10.27;;
1358;SDS011;673;48.098;14.422;2023-12-20T03:17:37;12.53;;;9.87;;
1358;SDS011;673;48.098;14.422;2023-12-20T03:20:05;10.80;;;9.43;;
1358;SDS011;673;48.098;14.422;2023-12-20T03:22:33;11.20;;;8.90;;
1358;SDS011;673;48.098;14.422;2023-12-20T03:25:00;10.63;;;9.53;;
1358;SDS011;673;48.098;14.422;2023-12-20T03:27:27;10.33;;;8.30;;
1358;SDS011;673;48.098;14.422;2023-12-20T03:29:54;11.47;;;8.07;;
1358;SDS011;673;48.098;14.422;2023-12-20T03:32:22;10.40;;;9.03;;
1358;SDS011;673;48.098;14.422;2023-12-20T03:34:49;10.20;;;9.03;;
1358;SDS011;673;48.098;14.422;2023-12-20T03:37:16;12.07;;;10.17;;
1358;SDS011;673;48.098;14.422;2023-12-20T03:39:43;10.67;;;9.60;;
1358;SDS011;673;48.098;14.422;2023-12-20T03:42:10;12.93;;;11.10;;
1358;SDS011;673;48.098;14.422;2023-12-20T03:44:38;12.70;;;11.40;;
1358;SDS011;673;48.098;14.422;2023-12-20T03:47:05;12.47;;;11.27;;
1358;SDS011;673;48.098;14.422;2023-12-20T03:49:33;13.33;;;10.90;;
1358;SDS011;673;48.098;14.422;2023-12-20T03:52:02;12.73;;;11.40;;
1358;SDS011;673;48.098;14.422;2023-12-20T03:54:29;12.57;;;10.33;;
1358;SDS011;673;48.098;14.422;2023-12-20T03:56:56;11.63;;;8.90;;
1358;SDS011;673;48.098;14.422;2023-12-20T03:59:23;12.17;;;8.73;;
1358;SDS011;673;48.098;14.422;2023-12-20T04:01:50;12.93;;;11.50;;
1358;SDS011;673;48.098;14.422;2023-12-20T04:04:17;15.40;;;11.43;;
1358;SDS011;673;48.098;14.422;2023-12-20T04:06:45;17.43;;;12.03;;
1358;SDS011;673;48.098;14.422;2023-12-20T04:09:12;12.37;;;10.13;;
1358;SDS011;673;48.098;14.422;2023-12-20T04:11:39;16.00;;;10.47;;
1358;SDS011;673;48.098;14.422;2023-12-20T04:14:06;11.43;;;10.23;;
1358;SDS011;673;48.098;14.422;2023-12-20T04:16:34;11.27;;;8.63;;
1358;SDS011;673;48.098;14.422;2023-12-20T04:19:01;10.47;;;7.60;;
1358;SDS011;673;48.098;14.422;2023-12-20T04:21:28;9.03;;;8.13;;
1358;SDS011;673;48.098;14.422;2023-12-20T04:23:57;8.30;;;7.43;;
1358;SDS011;673;48.098;14.422;2023-12-20T04:26:23;11.53;;;7.40;;
1358;SDS011;673;48.098;14.422;2023-12-20T04:28:50;9.80;;;7.90;;
1358;SDS011;673;48.098;14.422;2023-12-20T04:31:17;8.70;;;7.10;;
1358;SDS011;673;48.098;14.422;2023-12-20T04:33:44;9.33;;;8.43;;
1358;SDS011;673;48.098;14.422;2023-12-20T04:36:11;11.13;;;9.97;;
1358;SDS011;673;48.098;14.422;2023-12-20T04:38:38;10.90;;;7.90;;
1358;SDS011;673;48.098;14.422;2023-12-20T04:41:06;6.57;;;5.87;;
1358;SDS011;673;48.098;14.422;2023-12-20T04:43:33;7.13;;;6.53;;
1358;SDS011;673;48.098;14.422;2023-12-20T04:46:00;9.33;;;6.07;;
1358;SDS011;673;48.098;14.422;2023-12-20T04:48:28;13.70;;;10.40;;
1358;SDS011;673;48.098;14.422;2023-12-20T04:50:55;13.50;;;11.70;;
1358;SDS011;673;48.098;14.422;2023-12-20T04:53:22;16.53;;;11.20;;
1358;SDS011;673;48.098;14.422;2023-12-20T04:55:49;13.60;;;12.13;;
1358;SDS011;673;48.098;14.422;2023-12-20T04:58:17;11.80;;;9.63;;
1358;SDS011;673;48.098;14.422;2023-12-20T05:00:44;13.77;;;11.57;;
1358;SDS011;673;48.098;14.422;2023-12-20T05:03:11;11.97;;;9.93;;
1358;SDS011;673;48.098;14.422;2023-12-20T05:05:38;10.30;;;9.27;;
1358;SDS011;673;48.098;14.422;2023-12-20T05:08:06;10.07;;;9.17;;
1358;SDS011;673;48.098;14.422;2023-12-20T05:10:32;11.93;;;9.73;;
1358;SDS011;673;48.098;14.422;2023-12-20T05:13:00;11.00;;;9.90;;
1358;SDS011;673;48.098;14.422;2023-12-20T05:15:28;10.50;;;9.00;;
1358;SDS011;673;48.098;14.422;2023-12-20T05:17:56;11.50;;;9.37;;
1358;SDS011;673;48.098;14.422;2023-12-20T05:20:23;12.40;;;9.70;;
1358;SDS011;673;48.098;14.422;2023-12-20T05:22:50;9.90;;;8.90;;
1358;SDS011;673;48.098;14.422;2023-12-20T05:25:17;10.03;;;8.73;;
1358;SDS011;673;48.098;14.422;2023-12-20T05:27:44;8.90;;;8.00;;
1358;SDS011;673;48.098;14.422;2023-12-20T05:30:11;9.20;;;7.60;;
1358;SDS011;673;48.098;14.422;2023-12-20T05:32:40;9.27;;;7.20;;
1358;SDS011;673;48.098;14.422;2023-12-20T05:35:07;8.60;;;7.67;;
1358;SDS011;673;48.098;14.422;2023-12-20T05:37:34;10.80;;;6.50;;
1358;SDS011;673;48.098;14.422;2023-12-20T05:40:01;7.37;;;6.17;;
1358;SDS011;673;48.098;14.422;2023-12-20T05:42:29;10.67;;;6.20;;
1358;SDS011;673;48.098;14.422;2023-12-20T05:44:56;7.87;;;6.37;;
1358;SDS011;673;48.098;14.422;2023-12-20T05:47:23;8.83;;;6.67;;
1358;SDS011;673;48.098;14.422;2023-12-20T05:49:51;6.53;;;5.73;;
1358;SDS011;673;48.098;14.422;2023-12-20T05:52:18;7.13;;;6.40;;
1358;SDS011;673;48.098;14.422;2023-12-20T05:54:45;11.63;;;5.83;;
1358;SDS011;673;48.098;14.422;2023-12-20T05:57:12;5.77;;;5.23;;
1358;SDS011;673;48.098;14.422;2023-12-20T05:59:39;7.27;;;5.60;;
1358;SDS011;673;48.098;14.422;2023-12-20T06:02:06;7.00;;;5.20;;
1358;SDS011;673;48.098;14.422;2023-12-20T06:04:33;14.37;;;8.90;;
1358;SDS011;673;48.098;14.422;2023-12-20T06:07:02;13.33;;;8.93;;
1358;SDS011;673;48.098;14.422;2023-12-20T06:09:29;15.73;;;10.37;;
1358;SDS011;673;48.098;14.422;2023-12-20T06:11:56;7.23;;;6.03;;
1358;SDS011;673;48.098;14.422;2023-12-20T06:14:23;11.03;;;8.03;;
1358;SDS011;673;48.098;14.422;2023-12-20T06:16:50;7.43;;;6.40;;
1358;SDS011;673;48.098;14.422;2023-12-20T06:19:17;8.33;;;7.10;;
1358;SDS011;673;48.098;14.422;2023-12-20T06:21:44;9.70;;;7.63;;
1358;SDS011;673;48.098;14.422;2023-12-20T06:24:13;9.23;;;7.40;;
1358;SDS011;673;48.098;14.422;2023-12-20T06:26:39;6.43;;;5.80;;
1358;SDS011;673;48.098;14.422;2023-12-20T06:29:06;8.20;;;7.23;;
1358;SDS011;673;48.098;14.422;2023-12-20T06:31:34;6.93;;;5.63;;
1358;SDS011;673;48.098;14.422;2023-12-20T06:34:01;6.10;;;5.43;;
1358;SDS011;673;48.098;14.422;2023-12-20T06:36:28;3.97;;;3.40;;
1358;SDS011;673;48.098;14.422;2023-12-20T06:38:55;5.03;;;3.00;;
1358;SDS011;673;48.098;14.422;2023-12-20T06:41:24;2.33;;;2.13;;
1358;SDS011;673;48.098;14.422;2023-12-20T06:43:51;3.63;;;3.20;;
1358;SDS011;673;48.098;14.422;2023-12-20T06:46:18;2.60;;;2.37;;
1358;SDS011;673;48.098;14.422;2023-12-20T06:48:45;1.97;;;1.87;;
1358;SDS011;673;48.098;14.422;2023-12-20T06:51:14;2.13;;;1.80;;
1358;SDS011;673;48.098;14.422;2023-12-20T06:53:41;3.30;;;1.83;;
1358;SDS011;673;48.098;14.422;2023-12-20T06:56:10;2.20;;;1.30;;
1358;SDS011;673;48.098;14.422;2023-12-20T06:58:39;2.70;;;2.13;;
1358;SDS011;673;48.098;14.422;2023-12-20T07:01:07;5.00;;;2.37;;
1358;SDS011;673;48.098;14.422;2023-12-20T07:03:37;3.57;;;2.53;;
1358;SDS011;673;48.098;14.422;2023-12-20T07:06:04;3.73;;;1.47;;
1358;SDS011;673;48.098;14.422;2023-12-20T07:08:31;2.70;;;1.97;;
1358;SDS011;673;48.098;14.422;2023-12-20T07:10:58;2.70;;;1.70;;
1358;SDS011;673;48.098;14.422;2023-12-20T07:13:25;1.60;;;1.50;;
1358;SDS011;673;48.098;14.422;2023-12-20T07:15:53;2.40;;;1.87;;
1358;SDS011;673;48.098;14.422;2023-12-20T07:18:20;3.90;;;2.03;;
1358;SDS011;673;48.098;14.422;2023-12-20T07:20:47;2.30;;;2.10;;
1358;SDS011;673;48.098;14.422;2023-12-20T07:23:14;2.77;;;2.50;;
1358;SDS011;673;48.098;14.422;2023-12-20T07:25:41;2.17;;;1.70;;
1358;SDS011;673;48.098;14.422;2023-12-20T07:28:08;1.67;;;1.57;;
1358;SDS011;673;48.098;14.422;2023-12-20T07:30:35;3.23;;;1.93;;
1358;SDS011;673;48.098;14.422;2023-12-20T07:33:04;1.67;;;1.43;;
1358;SDS011;673;48.098;14.422;2023-12-20T07:35:33;2.40;;;1.43;;
1358;SDS011;673;48.098;14.422;2023-12-20T07:38:00;1.57;;;1.27;;
1358;SDS011;673;48.098;14.422;2023-12-20T07:40:27;0.70;;;0.60;;
1358;SDS011;673;48.098;14.422;2023-12-20T07:42:54;1.10;;;0.90;;
1358;SDS011;673;48.098;14.422;2023-12-20T07:45:21;0.70;;;0.50;;
1358;SDS011;673;48.098;14.422;2023-12-20T07:47:48;1.20;;;0.80;;
1358;SDS011;673;48.098;14.422;2023-12-20T07:50:17;1.43;;;0.70;;
1358;SDS011;673;48.098;14.422;2023-12-20T07:52:44;1.10;;;1.00;;
1358;SDS011;673;48.098;14.422;2023-12-20T07:55:10;0.60;;;0.60;;
1358;SDS011;673;48.098;14.422;2023-12-20T07:57:37;1.00;;;0.77;;
1358;SDS011;673;48.098;14.422;2023-12-20T08:00:05;1.00;;;0.80;;
1358;SDS011;673;48.098;14.422;2023-12-20T08:02:33;4.00;;;1.17;;
1358;SDS011;673;48.098;14.422;2023-12-20T08:05:00;1.30;;;0.87;;
1358;SDS011;673;48.098;14.422;2023-12-20T08:07:28;1.50;;;1.10;;
1358;SDS011;673;48.098;14.422;2023-12-20T08:09:55;2.00;;;1.00;;
1358;SDS011;673;48.098;14.422;2023-12-20T08:12:22;1.00;;;0.90;;
1358;SDS011;673;48.098;14.422;2023-12-20T08:14:52;1.30;;;0.90;;
1358;SDS011;673;48.098;14.422;2023-12-20T08:17:19;0.77;;;0.73;;
1358;SDS011;673;48.098;14.422;2023-12-20T08:19:48;1.90;;;1.20;;
1358;SDS011;673;48.098;14.422;2023-12-20T08:22:15;1.80;;;1.37;;
1358;SDS011;673;48.098;14.422;2023-12-20T08:24:43;1.37;;;1.20;;
1358;SDS011;673;48.098;14.422;2023-12-20T08:27:09;1.27;;;1.17;;
1358;SDS011;673;48.098;14.422;2023-12-20T08:29:36;2.50;;;1.43;;
1358;SDS011;673;48.098;14.422;2023-12-20T08:32:03;1.40;;;1.13;;
1358;SDS011;673;48.098;14.422;2023-12-20T08:34:31;1.30;;;1.20;;
1358;SDS011;673;48.098;14.422;2023-12-20T08:36:58;1.37;;;1.00;;
1358;SDS011;673;48.098;14.422;2023-12-20T08:39:25;1.83;;;1.60;;
1358;SDS011;673;48.098;14.422;2023-12-20T08:41:53;5.73;;;2.40;;
1358;SDS011;673;48.098;14.422;2023-12-20T08:44:20;2.93;;;1.93;;
1358;SDS011;673;48.098;14.422;2023-12-20T08:46:47;1.60;;;1.50;;
1358;SDS011;673;48.098;14.422;2023-12-20T08:49:14;2.47;;;1.50;;
1358;SDS011;673;48.098;14.422;2023-12-20T08:51:42;2.70;;;1.47;;
1358;SDS011;673;48.098;14.422;2023-12-20T08:54:09;1.43;;;1.33;;
1358;SDS011;673;48.098;14.422;2023-12-20T08:56:38;1.23;;;1.13;;
1358;SDS011;673;48.098;14.422;2023-12-20T08:59:06;6.23;;;2.43;;
1358;SDS011;673;48.098;14.422;2023-12-20T09:01:34;5.50;;;3.47;;
1358;SDS011;673;48.098;14.422;2023-12-20T09:04:01;6.53;;;4.17;;
1358;SDS011;673;48.098;14.422;2023-12-20T09:06:28;1.73;;;1.40;;
1358;SDS011;673;48.098;14.422;2023-12-20T09:08:55;1.37;;;1.27;;
1358;SDS011;673;48.098;14.422;2023-12-20T09:11:22;2.37;;;2.17;;
1358;SDS011;673;48.098;14.422;2023-12-20T09:13:49;6.70;;;3.13;;
1358;SDS011;673;48.098;14.422;2023-12-20T09:16:17;3.60;;;2.70;;
1358;SDS011;673;48.098;14.422;2023-12-20T09:18:44;7.57;;;2.20;;
1358;SDS011;673;48.098;14.422;2023-12-20T09:21:11;4.70;;;2.30;;
1358;SDS011;673;48.098;14.422;2023-12-20T09:23:38;4.90;;;3.90;;
1358;SDS011;673;48.098;14.422;2023-12-20T09:26:06;1.13;;;0.93;;
1358;SDS011;673;48.098;14.422;2023-12-20T09:28:33;3.33;;;1.50;;
1358;SDS011;673;48.098;14.422;2023-12-20T09:31:02;1.43;;;1.03;;
1358;SDS011;673;48.098;14.422;2023-12-20T09:33:32;1.90;;;1.10;;
1358;SDS011;673;48.098;14.422;2023-12-20T09:35:59;2.90;;;2.27;;
1358;SDS011;673;48.098;14.422;2023-12-20T09:38:26;1.30;;;1.20;;
1358;SDS011;673;48.098;14.422;2023-12-20T09:40:53;1.27;;;1.07;;
1358;SDS011;673;48.098;14.422;2023-12-20T09:43:21;0.97;;;0.97;;
1358;SDS011;673;48.098;14.422;2023-12-20T09:45:52;1.60;;;1.50;;
1358;SDS011;673;48.098;14.422;2023-12-20T09:48:20;1.83;;;1.00;;
1358;SDS011;673;48.098;14.422;2023-12-20T09:50:48;2.70;;;2.40;;
1358;SDS011;673;48.098;14.422;2023-12-20T09:53:15;1.60;;;1.50;;
1358;SDS011;673;48.098;14.422;2023-12-20T09:55:44;1.87;;;0.80;;
1358;SDS011;673;48.098;14.422;2023-12-20T09:58:11;1.93;;;1.00;;
1358;SDS011;673;48.098;14.422;2023-12-20T10:00:38;0.90;;;0.70;;
1358;SDS011;673;48.098;14.422;2023-12-20T10:03:06;1.57;;;1.20;;
1358;SDS011;673;48.098;14.422;2023-12-20T10:05:34;1.33;;;0.90;;
1358;SDS011;673;48.098;14.422;2023-12-20T10:08:03;1.43;;;1.33;;
1358;SDS011;673;48.098;14.422;2023-12-20T10:10:30;1.00;;;0.90;;
1358;SDS011;673;48.098;14.422;2023-12-20T10:13:01;1.10;;;1.00;;
1358;SDS011;673;48.098;14.422;2023-12-20T10:15:29;8.40;;;2.10;;
1358;SDS011;673;48.098;14.422;2023-12-20T10:17:57;1.13;;;1.03;;
1358;SDS011;673;48.098;14.422;2023-12-20T10:20:24;1.50;;;1.40;;
1358;SDS011;673;48.098;14.422;2023-12-20T10:22:51;1.63;;;1.00;;
1358;SDS011;673;48.098;14.422;2023-12-20T10:25:20;1.47;;;0.70;;
1358;SDS011;673;48.098;14.422;2023-12-20T10:27:48;1.00;;;0.90;;
1358;SDS011;673;48.098;14.422;2023-12-20T10:30:16;3.63;;;1.90;;
1358;SDS011;673;48.098;14.422;2023-12-20T10:32:44;1.13;;;1.03;;
1358;SDS011;673;48.098;14.422;2023-12-20T10:35:11;1.10;;;0.67;;
1358;SDS011;673;48.098;14.422;2023-12-20T10:37:38;0.83;;;0.83;;
1358;SDS011;673;48.098;14.422;2023-12-20T10:40:05;0.90;;;0.80;;
1358;SDS011;673;48.098;14.422;2023-12-20T10:42:34;1.00;;;0.60;;
1358;SDS011;673;48.098;14.422;2023-12-20T10:45:02;0.87;;;0.80;;
1358;SDS011;673;48.098;14.422;2023-12-20T10:47:30;0.90;;;0.90;;
1358;SDS011;673;48.098;14.422;2023-12-20T10:49:59;1.33;;;0.60;;
1358;SDS011;673;48.098;14.422;2023-12-20T10:52:27;2.07;;;0.60;;
1358;SDS011;673;48.098;14.422;2023-12-20T10:54:55;0.80;;;0.80;;
1358;SDS011;673;48.098;14.422;2023-12-20T10:57:23;1.43;;;0.50;;
1358;SDS011;673;48.098;14.422;2023-12-20T10:59:54;0.70;;;0.70;;
1358;SDS011;673;48.098;14.422;2023-12-20T11:02:25;0.70;;;0.60;;
1358;SDS011;673;48.098;14.422;2023-12-20T11:04:55;0.90;;;0.90;;
1358;SDS011;673;48.098;14.422;2023-12-20T11:07:29;0.40;;;0.40;;
1358;SDS011;673;48.098;14.422;2023-12-20T11:10:03;0.83;;;0.50;;
1358;SDS011;673;48.098;14.422;2023-12-20T11:12:41;0.47;;;0.40;;
1358;SDS011;673;48.098;14.422;2023-12-20T11:15:15;0.40;;;0.30;;
1358;SDS011;673;48.098;14.422;2023-12-20T11:17:44;0.47;;;0.33;;
1358;SDS011;673;48.098;14.422;2023-12-20T11:20:12;0.40;;;0.40;;
1358;SDS011;673;48.098;14.422;2023-12-20T11:22:39;0.60;;;0.40;;
1358;SDS011;673;48.098;14.422;2023-12-20T11:25:19;0.70;;;0.50;;
1358;SDS011;673;48.098;14.422;2023-12-20T11:30:43;1.10;;;0.60;;
1358;SDS011;673;48.098;14.422;2023-12-20T11:33:13;1.20;;;0.57;;
1358;SDS011;673;48.098;14.422;2023-12-20T11:35:41;0.53;;;0.47;;
1358;SDS011;673;48.098;14.422;2023-12-20T11:38:08;0.80;;;0.50;;
1358;SDS011;673;48.098;14.422;2023-12-20T11:40:36;2.00;;;1.40;;
1358;SDS011;673;48.098;14.422;2023-12-20T11:43:03;1.10;;;0.60;;
1358;SDS011;673;48.098;14.422;2023-12-20T11:45:31;1.67;;;1.30;;
1358;SDS011;673;48.098;14.422;2023-12-20T11:48:01;0.93;;;0.60;;
1358;SDS011;673;48.098;14.422;2023-12-20T11:50:28;0.70;;;0.60;;
1358;SDS011;673;48.098;14.422;2023-12-20T11:52:56;1.70;;;0.60;;
1358;SDS011;673;48.098;14.422;2023-12-20T11:55:23;2.17;;;0.70;;
1358;SDS011;673;48.098;14.422;2023-12-20T11:57:51;1.27;;;0.57;;
1358;SDS011;673;48.098;14.422;2023-12-20T12:00:19;1.07;;;0.80;;
1358;SDS011;673;48.098;14.422;2023-12-20T12:02:55;0.50;;;0.40;;
1358;SDS011;673;48.098;14.422;2023-12-20T12:05:28;0.97;;;0.73;;
1358;SDS011;673;48.098;14.422;2023-12-20T12:07:56;0.80;;;0.60;;
1358;SDS011;673;48.098;14.422;2023-12-20T12:10:24;0.50;;;0.50;;
1358;SDS011;673;48.098;14.422;2023-12-20T12:12:51;0.70;;;0.40;;
1358;SDS011;673;48.098;14.422;2023-12-20T12:15:18;0.77;;;0.73;;
1358;SDS011;673;48.098;14.422;2023-12-20T12:17:52;0.80;;;0.50;;
1358;SDS011;673;48.098;14.422;2023-12-20T12:20:21;0.50;;;0.40;;
1358;SDS011;673;48.098;14.422;2023-12-20T12:22:57;0.57;;;0.50;;
1358;SDS011;673;48.098;14.422;2023-12-20T12:25:24;0.63;;;0.50;;
1358;SDS011;673;48.098;14.422;2023-12-20T12:27:51;1.03;;;0.60;;
1358;SDS011;673;48.098;14.422;2023-12-20T12:30:18;0.90;;;0.63;;
1358;SDS011;673;48.098;14.422;2023-12-20T12:32:46;1.73;;;1.47;;
1358;SDS011;673;48.098;14.422;2023-12-20T12:35:13;2.50;;;1.83;;
1358;SDS011;673;48.098;14.422;2023-12-20T12:37:42;0.60;;;0.47;;
1358;SDS011;673;48.098;14.422;2023-12-20T12:40:10;1.10;;;0.70;;
1358;SDS011;673;48.098;14.422;2023-12-20T12:42:38;0.47;;;0.40;;
1358;SDS011;673;48.098;14.422;2023-12-20T12:45:06;0.40;;;0.30;;
1358;SDS011;673;48.098;14.422;2023-12-20T12:47:33;0.40;;;0.30;;
1358;SDS011;673;48.098;14.422;2023-12-20T12:50:01;0.50;;;0.40;;
1358;SDS011;673;48.098;14.422;2023-12-20T12:52:28;0.47;;;0.40;;
1358;SDS011;673;48.098;14.422;2023-12-20T12:54:56;0.40;;;0.40;;
1358;SDS011;673;48.098;14.422;2023-12-20T12:57:23;0.50;;;0.40;;
1358;SDS011;673;48.098;14.422;2023-12-20T12:59:50;0.40;;;0.30;;
1358;SDS011;673;48.098;14.422;2023-12-20T13:02:17;1.27;;;0.30;;
1358;SDS011;673;48.098;14.422;2023-12-20T13:04:44;0.60;;;0.30;;
1358;SDS011;673;48.098;14.422;2023-12-20T13:07:11;0.50;;;0.30;;
1358;SDS011;673;48.098;14.422;2023-12-20T13:09:39;1.53;;;0.50;;
1358;SDS011;673;48.098;14.422;2023-12-20T13:12:08;5.80;;;1.20;;
1358;SDS011;673;48.098;14.422;2023-12-20T13:14:35;1.30;;;1.20;;
1358;SDS011;673;48.098;14.422;2023-12-20T13:17:03;1.63;;;0.60;;
1358;SDS011;673;48.098;14.422;2023-12-20T13:19:31;5.17;;;1.80;;
1358;SDS011;673;48.098;14.422;2023-12-20T13:21:58;5.60;;;3.03;;
1358;SDS011;673;48.098;14.422;2023-12-20T13:24:25;1.97;;;1.27;;
1358;SDS011;673;48.098;14.422;2023-12-20T13:26:52;4.07;;;2.20;;
1358;SDS011;673;48.098;14.422;2023-12-20T13:29:20;1.33;;;0.80;;
1358;SDS011;673;48.098;14.422;2023-12-20T13:31:48;1.00;;;0.40;;
1358;SDS011;673;48.098;14.422;2023-12-20T13:34:15;0.40;;;0.40;;
1358;SDS011;673;48.098;14.422;2023-12-20T13:36:43;0.93;;;0.83;;
1358;SDS011;673;48.098;14.422;2023-12-20T13:39:12;0.60;;;0.50;;
1358;SDS011;673;48.098;14.422;2023-12-20T13:41:39;0.50;;;0.40;;
1358;SDS011;673;48.098;14.422;2023-12-20T13:44:06;0.50;;;0.50;;
1358;SDS011;673;48.098;14.422;2023-12-20T13:46:34;0.60;;;0.50;;
1358;SDS011;673;48.098;14.422;2023-12-20T13:49:02;0.73;;;0.63;;
1358;SDS011;673;48.098;14.422;2023-12-20T13:51:30;0.50;;;0.40;;
1358;SDS011;673;48.098;14.422;2023-12-20T13:53:57;0.70;;;0.50;;
1358;SDS011;673;48.098;14.422;2023-12-20T13:56:24;0.60;;;0.60;;
1358;SDS011;673;48.098;14.422;2023-12-20T13:58:51;0.83;;;0.73;;
1358;SDS011;673;48.098;14.422;2023-12-20T14:01:19;0.50;;;0.50;;
1358;SDS011;673;48.098;14.422;2023-12-20T14:03:47;1.43;;;0.47;;
1358;SDS011;673;48.098;14.422;2023-12-20T14:06:14;1.20;;;0.60;;
1358;SDS011;673;48.098;14.422;2023-12-20T14:08:41;0.57;;;0.57;;
1358;SDS011;673;48.098;14.422;2023-12-20T14:11:08;0.50;;;0.50;;
1358;SDS011;673;48.098;14.422;2023-12-20T14:13:35;1.97;;;1.33;;
1358;SDS011;673;48.098;14.422;2023-12-20T14:16:02;0.93;;;0.60;;
1358;SDS011;673;48.098;14.422;2023-12-20T14:18:30;1.73;;;0.50;;
1358;SDS011;673;48.098;14.422;2023-12-20T14:20:58;0.90;;;0.77;;
1358;SDS011;673;48.098;14.422;2023-12-20T14:23:25;0.43;;;0.43;;
1358;SDS011;673;48.098;14.422;2023-12-20T14:25:52;0.70;;;0.60;;
1358;SDS011;673;48.098;14.422;2023-12-20T14:28:21;0.83;;;0.50;;
1358;SDS011;673;48.098;14.422;2023-12-20T14:30:48;0.60;;;0.60;;
1358;SDS011;673;48.098;14.422;2023-12-20T14:33:15;2.03;;;1.10;;
1358;SDS011;673;48.098;14.422;2023-12-20T14:35:42;2.03;;;1.40;;
1358;SDS011;673;48.098;14.422;2023-12-20T14:38:11;1.60;;;1.33;;
1358;SDS011;673;48.098;14.422;2023-12-20T14:40:40;1.20;;;1.10;;
1358;SDS011;673;48.098;14.422;2023-12-20T14:43:07;2.80;;;1.83;;
1358;SDS011;673;48.098;14.422;2023-12-20T14:45:34;2.43;;;0.90;;
1358;SDS011;673;48.098;14.422;2023-12-20T14:48:01;1.87;;;1.17;;
1358;SDS011;673;48.098;14.422;2023-12-20T14:50:28;1.77;;;1.20;;
1358;SDS011;673;48.098;14.422;2023-12-20T14:52:55;0.60;;;0.60;;
1358;SDS011;673;48.098;14.422;2023-12-20T14:55:23;2.57;;;0.60;;
1358;SDS011;673;48.098;14.422;2023-12-20T14:57:52;1.43;;;0.80;;
1358;SDS011;673;48.098;14.422;2023-12-20T15:00:19;0.90;;;0.70;;
1358;SDS011;673;48.098;14.422;2023-12-20T15:02:46;3.03;;;2.03;;
1358;SDS011;673;48.098;14.422;2023-12-20T15:05:15;3.37;;;1.87;;
1358;SDS011;673;48.098;14.422;2023-12-20T15:07:42;2.90;;;2.10;;
1358;SDS011;673;48.098;14.422;2023-12-20T15:10:09;2.30;;;1.07;;
1358;SDS011;673;48.098;14.422;2023-12-20T15:12:38;1.63;;;1.10;;
1358;SDS011;673;48.098;14.422;2023-12-20T15:15:05;2.07;;;0.90;;
1358;SDS011;673;48.098;14.422;2023-12-20T15:17:34;1.57;;;0.80;;